sensor_id;sensor_type;location;lat;lon;timestamp;P1;durP1;ratioP1;P2;durP2;ratioP2
6406;SDS011;3236;51.022;6.818;2023-07-29T00:00:41;2.78;;;2.22;;
6406;SDS011;3236;51.022;6.818;2023-07-29T00:03:09;3.75;;;2.70;;
6406;SDS011;3236;51.022;6.818;2023-07-29T00:05:38;6.15;;;2.17;;
6406;SDS011;3236;51.022;6.818;2023-07-29T00:08:07;5.35;;;2.10;;
6406;SDS011;3236;51.022;6.818;2023-07-29T00:10:35;4.05;;;2.50;;
6406;SDS011;3236;51.022;6.818;2023-07-29T00:13:03;8.88;;;4.35;;
6406;SDS011;3236;51.022;6.818;2023-07-29T00:15:30;3.42;;;2.50;;
6406;SDS011;3236;51.022;6.818;2023-07-29T00:17:58;4.63;;;2.70;;
6406;SDS011;3236;51.022;6.818;2023-07-29T00:20:25;2.60;;;2.40;;
6406;SDS011;3236;51.022;6.818;2023-07-29T00:22:52;3.78;;;2.75;;
6406;SDS011;3236;51.022;6.818;2023-07-29T00:25:21;3.80;;;3.10;;
6406;SDS011;3236;51.022;6.818;2023-07-29T00:27:48;4.93;;;3.42;;
6406;SDS011;3236;51.022;6.818;2023-07-29T00:30:15;3.55;;;2.60;;
6406;SDS011;3236;51.022;6.818;2023-07-29T00:32:42;6.13;;;2.60;;
6406;SDS011;3236;51.022;6.818;2023-07-29T00:35:09;3.28;;;2.80;;
6406;SDS011;3236;51.022;6.818;2023-07-29T00:37:39;4.80;;;3.10;;
6406;SDS011;3236;51.022;6.818;2023-07-29T00:40:09;3.00;;;2.70;;
6406;SDS011;3236;51.022;6.818;2023-07-29T00:42:43;3.10;;;2.80;;
6406;SDS011;3236;51.022;6.818;2023-07-29T00:45:10;4.65;;;2.63;;
6406;SDS011;3236;51.022;6.818;2023-07-29T00:47:37;3.63;;;2.72;;
6406;SDS011;3236;51.022;6.818;2023-07-29T00:50:05;4.15;;;2.60;;
6406;SDS011;3236;51.022;6.818;2023-07-29T00:52:33;2.85;;;2.58;;
6406;SDS011;3236;51.022;6.818;2023-07-29T00:55:00;4.35;;;2.53;;
6406;SDS011;3236;51.022;6.818;2023-07-29T00:57:27;4.90;;;2.50;;
6406;SDS011;3236;51.022;6.818;2023-07-29T00:59:57;2.80;;;2.40;;
6406;SDS011;3236;51.022;6.818;2023-07-29T01:02:25;5.88;;;2.90;;
6406;SDS011;3236;51.022;6.818;2023-07-29T01:04:55;4.55;;;2.90;;
6406;SDS011;3236;51.022;6.818;2023-07-29T01:07:26;3.58;;;2.50;;
6406;SDS011;3236;51.022;6.818;2023-07-29T01:10:24;6.43;;;2.60;;
6406;SDS011;3236;51.022;6.818;2023-07-29T01:13:05;2.90;;;2.60;;
6406;SDS011;3236;51.022;6.818;2023-07-29T01:15:40;8.57;;;3.00;;
6406;SDS011;3236;51.022;6.818;2023-07-29T01:18:14;2.97;;;2.67;;
6406;SDS011;3236;51.022;6.818;2023-07-29T01:20:46;3.10;;;2.72;;
6406;SDS011;3236;51.022;6.818;2023-07-29T01:23:15;2.28;;;2.08;;
6406;SDS011;3236;51.022;6.818;2023-07-29T01:25:44;4.65;;;2.60;;
6406;SDS011;3236;51.022;6.818;2023-07-29T01:28:11;9.68;;;3.22;;
6406;SDS011;3236;51.022;6.818;2023-07-29T01:30:39;6.47;;;2.63;;
6406;SDS011;3236;51.022;6.818;2023-07-29T01:35:41;4.43;;;2.55;;
6406;SDS011;3236;51.022;6.818;2023-07-29T01:38:13;6.88;;;3.00;;
6406;SDS011;3236;51.022;6.818;2023-07-29T01:40:45;3.95;;;2.95;;
6406;SDS011;3236;51.022;6.818;2023-07-29T01:43:13;3.50;;;3.20;;
6406;SDS011;3236;51.022;6.818;2023-07-29T01:45:41;21.35;;;5.32;;
6406;SDS011;3236;51.022;6.818;2023-07-29T01:48:08;3.97;;;3.08;;
6406;SDS011;3236;51.022;6.818;2023-07-29T01:50:35;6.97;;;3.33;;
6406;SDS011;3236;51.022;6.818;2023-07-29T01:53:05;6.65;;;3.45;;
6406;SDS011;3236;51.022;6.818;2023-07-29T01:55:32;4.95;;;3.50;;
6406;SDS011;3236;51.022;6.818;2023-07-29T01:58:07;8.10;;;3.35;;
6406;SDS011;3236;51.022;6.818;2023-07-29T02:00:34;4.00;;;3.60;;
6406;SDS011;3236;51.022;6.818;2023-07-29T02:03:01;4.10;;;3.50;;
6406;SDS011;3236;51.022;6.818;2023-07-29T02:05:28;7.18;;;3.95;;
6406;SDS011;3236;51.022;6.818;2023-07-29T02:07:55;7.78;;;3.97;;
6406;SDS011;3236;51.022;6.818;2023-07-29T02:10:22;4.15;;;3.75;;
6406;SDS011;3236;51.022;6.818;2023-07-29T02:12:51;3.72;;;3.20;;
6406;SDS011;3236;51.022;6.818;2023-07-29T02:15:19;6.03;;;2.88;;
6406;SDS011;3236;51.022;6.818;2023-07-29T02:17:46;4.63;;;3.15;;
6406;SDS011;3236;51.022;6.818;2023-07-29T02:20:13;3.60;;;3.30;;
6406;SDS011;3236;51.022;6.818;2023-07-29T02:22:40;6.53;;;3.78;;
6406;SDS011;3236;51.022;6.818;2023-07-29T02:25:07;4.85;;;3.45;;
6406;SDS011;3236;51.022;6.818;2023-07-29T02:27:35;3.55;;;3.00;;
6406;SDS011;3236;51.022;6.818;2023-07-29T02:30:03;6.53;;;3.13;;
6406;SDS011;3236;51.022;6.818;2023-07-29T02:32:32;3.17;;;2.88;;
6406;SDS011;3236;51.022;6.818;2023-07-29T02:34:59;3.22;;;2.88;;
6406;SDS011;3236;51.022;6.818;2023-07-29T02:37:26;7.85;;;3.40;;
6406;SDS011;3236;51.022;6.818;2023-07-29T02:39:53;2.95;;;2.65;;
6406;SDS011;3236;51.022;6.818;2023-07-29T02:42:20;6.18;;;2.97;;
6406;SDS011;3236;51.022;6.818;2023-07-29T02:44:47;3.35;;;2.70;;
6406;SDS011;3236;51.022;6.818;2023-07-29T02:47:14;10.65;;;3.03;;
6406;SDS011;3236;51.022;6.818;2023-07-29T02:49:43;3.90;;;2.60;;
6406;SDS011;3236;51.022;6.818;2023-07-29T02:52:10;6.28;;;2.80;;
6406;SDS011;3236;51.022;6.818;2023-07-29T02:54:37;4.97;;;2.90;;
6406;SDS011;3236;51.022;6.818;2023-07-29T02:57:04;2.60;;;2.40;;
6406;SDS011;3236;51.022;6.818;2023-07-29T02:59:31;2.70;;;2.45;;
6406;SDS011;3236;51.022;6.818;2023-07-29T03:01:58;3.00;;;2.78;;
6406;SDS011;3236;51.022;6.818;2023-07-29T03:04:25;3.50;;;2.85;;
6406;SDS011;3236;51.022;6.818;2023-07-29T03:06:54;3.50;;;3.13;;
6406;SDS011;3236;51.022;6.818;2023-07-29T03:09:21;4.57;;;2.78;;
6406;SDS011;3236;51.022;6.818;2023-07-29T03:11:48;8.85;;;3.08;;
6406;SDS011;3236;51.022;6.818;2023-07-29T03:14:17;3.42;;;2.95;;
6406;SDS011;3236;51.022;6.818;2023-07-29T03:16:44;3.53;;;2.80;;
6406;SDS011;3236;51.022;6.818;2023-07-29T03:19:11;3.08;;;2.65;;
6406;SDS011;3236;51.022;6.818;2023-07-29T03:21:39;6.65;;;3.15;;
6406;SDS011;3236;51.022;6.818;2023-07-29T03:24:07;4.95;;;2.78;;
6406;SDS011;3236;51.022;6.818;2023-07-29T03:26:34;6.25;;;3.40;;
6406;SDS011;3236;51.022;6.818;2023-07-29T03:29:01;6.50;;;2.92;;
6406;SDS011;3236;51.022;6.818;2023-07-29T03:31:28;7.45;;;3.30;;
6406;SDS011;3236;51.022;6.818;2023-07-29T03:33:55;3.75;;;2.97;;
6406;SDS011;3236;51.022;6.818;2023-07-29T03:36:23;4.80;;;3.13;;
6406;SDS011;3236;51.022;6.818;2023-07-29T03:38:50;5.10;;;3.45;;
6406;SDS011;3236;51.022;6.818;2023-07-29T03:41:19;4.03;;;3.10;;
6406;SDS011;3236;51.022;6.818;2023-07-29T03:43:46;4.50;;;2.60;;
6406;SDS011;3236;51.022;6.818;2023-07-29T03:46:13;5.18;;;2.92;;
6406;SDS011;3236;51.022;6.818;2023-07-29T03:48:44;3.58;;;2.63;;
6406;SDS011;3236;51.022;6.818;2023-07-29T03:51:11;3.83;;;2.65;;
6406;SDS011;3236;51.022;6.818;2023-07-29T03:53:38;8.90;;;3.08;;
6406;SDS011;3236;51.022;6.818;2023-07-29T03:56:05;5.28;;;3.00;;
6406;SDS011;3236;51.022;6.818;2023-07-29T03:58:34;6.18;;;3.42;;
6406;SDS011;3236;51.022;6.818;2023-07-29T04:01:01;3.45;;;3.10;;
6406;SDS011;3236;51.022;6.818;2023-07-29T04:03:29;5.63;;;3.00;;
6406;SDS011;3236;51.022;6.818;2023-07-29T04:05:57;4.32;;;2.88;;
6406;SDS011;3236;51.022;6.818;2023-07-29T04:08:24;3.70;;;3.00;;
6406;SDS011;3236;51.022;6.818;2023-07-29T04:10:51;8.00;;;3.15;;
6406;SDS011;3236;51.022;6.818;2023-07-29T04:13:18;5.55;;;3.22;;
6406;SDS011;3236;51.022;6.818;2023-07-29T04:15:47;2.95;;;2.65;;
6406;SDS011;3236;51.022;6.818;2023-07-29T04:18:14;5.68;;;3.20;;
6406;SDS011;3236;51.022;6.818;2023-07-29T04:20:41;6.50;;;3.05;;
6406;SDS011;3236;51.022;6.818;2023-07-29T04:23:08;5.10;;;3.60;;
6406;SDS011;3236;51.022;6.818;2023-07-29T04:25:35;7.80;;;3.67;;
6406;SDS011;3236;51.022;6.818;2023-07-29T04:28:03;6.70;;;3.65;;
6406;SDS011;3236;51.022;6.818;2023-07-29T04:30:30;5.60;;;3.17;;
6406;SDS011;3236;51.022;6.818;2023-07-29T04:32:58;5.95;;;3.15;;
6406;SDS011;3236;51.022;6.818;2023-07-29T04:35:25;6.80;;;3.88;;
6406;SDS011;3236;51.022;6.818;2023-07-29T04:37:52;7.20;;;3.22;;
6406;SDS011;3236;51.022;6.818;2023-07-29T04:40:20;5.50;;;3.80;;
6406;SDS011;3236;51.022;6.818;2023-07-29T04:42:48;3.78;;;3.38;;
6406;SDS011;3236;51.022;6.818;2023-07-29T04:45:15;7.30;;;3.65;;
6406;SDS011;3236;51.022;6.818;2023-07-29T04:47:42;4.70;;;3.13;;
6406;SDS011;3236;51.022;6.818;2023-07-29T04:50:10;9.77;;;3.22;;
6406;SDS011;3236;51.022;6.818;2023-07-29T04:52:37;6.53;;;3.67;;
6406;SDS011;3236;51.022;6.818;2023-07-29T04:55:05;5.95;;;3.47;;
6406;SDS011;3236;51.022;6.818;2023-07-29T04:57:32;5.93;;;3.83;;
6406;SDS011;3236;51.022;6.818;2023-07-29T05:00:00;8.50;;;3.55;;
6406;SDS011;3236;51.022;6.818;2023-07-29T05:02:27;4.53;;;3.92;;
6406;SDS011;3236;51.022;6.818;2023-07-29T05:04:54;4.13;;;3.70;;
6406;SDS011;3236;51.022;6.818;2023-07-29T05:07:23;7.15;;;3.83;;
6406;SDS011;3236;51.022;6.818;2023-07-29T05:09:50;9.30;;;3.97;;
6406;SDS011;3236;51.022;6.818;2023-07-29T05:12:17;8.63;;;4.63;;
6406;SDS011;3236;51.022;6.818;2023-07-29T05:14:44;7.00;;;4.10;;
6406;SDS011;3236;51.022;6.818;2023-07-29T05:17:11;6.60;;;3.72;;
6406;SDS011;3236;51.022;6.818;2023-07-29T05:19:39;6.72;;;3.83;;
6406;SDS011;3236;51.022;6.818;2023-07-29T05:22:06;7.72;;;3.20;;
6406;SDS011;3236;51.022;6.818;2023-07-29T05:24:34;4.25;;;3.13;;
6406;SDS011;3236;51.022;6.818;2023-07-29T05:27:02;5.13;;;2.83;;
6406;SDS011;3236;51.022;6.818;2023-07-29T05:29:29;4.53;;;2.55;;
6406;SDS011;3236;51.022;6.818;2023-07-29T05:31:56;5.60;;;2.50;;
6406;SDS011;3236;51.022;6.818;2023-07-29T05:34:24;4.75;;;2.15;;
6406;SDS011;3236;51.022;6.818;2023-07-29T05:36:51;3.80;;;2.40;;
6406;SDS011;3236;51.022;6.818;2023-07-29T05:39:18;2.55;;;2.30;;
6406;SDS011;3236;51.022;6.818;2023-07-29T05:41:47;4.57;;;2.63;;
6406;SDS011;3236;51.022;6.818;2023-07-29T05:44:14;8.13;;;2.20;;
6406;SDS011;3236;51.022;6.818;2023-07-29T05:46:41;4.28;;;2.33;;
6406;SDS011;3236;51.022;6.818;2023-07-29T05:49:08;5.00;;;2.20;;
6406;SDS011;3236;51.022;6.818;2023-07-29T05:51:35;2.20;;;2.00;;
6406;SDS011;3236;51.022;6.818;2023-07-29T05:54:02;4.57;;;2.50;;
6406;SDS011;3236;51.022;6.818;2023-07-29T05:56:29;5.50;;;2.60;;
6406;SDS011;3236;51.022;6.818;2023-07-29T05:58:58;5.93;;;2.60;;
6406;SDS011;3236;51.022;6.818;2023-07-29T06:01:25;3.28;;;1.80;;
6406;SDS011;3236;51.022;6.818;2023-07-29T06:03:53;2.13;;;1.95;;
6406;SDS011;3236;51.022;6.818;2023-07-29T06:06:20;7.65;;;2.60;;
6406;SDS011;3236;51.022;6.818;2023-07-29T06:08:48;4.45;;;2.05;;
6406;SDS011;3236;51.022;6.818;2023-07-29T06:11:16;3.58;;;1.92;;
6406;SDS011;3236;51.022;6.818;2023-07-29T06:13:43;3.95;;;1.92;;
6406;SDS011;3236;51.022;6.818;2023-07-29T06:16:11;2.45;;;1.80;;
6406;SDS011;3236;51.022;6.818;2023-07-29T06:18:38;2.53;;;1.92;;
6406;SDS011;3236;51.022;6.818;2023-07-29T06:21:05;4.53;;;1.83;;
6406;SDS011;3236;51.022;6.818;2023-07-29T06:23:33;9.35;;;2.67;;
6406;SDS011;3236;51.022;6.818;2023-07-29T06:26:00;3.72;;;2.08;;
6406;SDS011;3236;51.022;6.818;2023-07-29T06:28:27;2.63;;;2.20;;
6406;SDS011;3236;51.022;6.818;2023-07-29T06:30:55;2.33;;;2.13;;
6406;SDS011;3236;51.022;6.818;2023-07-29T06:33:23;2.75;;;2.08;;
6406;SDS011;3236;51.022;6.818;2023-07-29T06:35:50;3.92;;;1.95;;
6406;SDS011;3236;51.022;6.818;2023-07-29T06:38:17;1.73;;;1.63;;
6406;SDS011;3236;51.022;6.818;2023-07-29T06:40:47;3.15;;;2.22;;
6406;SDS011;3236;51.022;6.818;2023-07-29T06:43:14;2.88;;;2.00;;
6406;SDS011;3236;51.022;6.818;2023-07-29T06:45:41;2.70;;;1.75;;
6406;SDS011;3236;51.022;6.818;2023-07-29T06:48:08;3.00;;;1.92;;
6406;SDS011;3236;51.022;6.818;2023-07-29T06:50:37;3.05;;;2.13;;
6406;SDS011;3236;51.022;6.818;2023-07-29T06:53:04;5.20;;;1.80;;
6406;SDS011;3236;51.022;6.818;2023-07-29T06:55:32;3.20;;;1.95;;
6406;SDS011;3236;51.022;6.818;2023-07-29T06:57:59;2.92;;;2.10;;
6406;SDS011;3236;51.022;6.818;2023-07-29T07:00:26;7.07;;;2.05;;
6406;SDS011;3236;51.022;6.818;2023-07-29T07:02:53;3.90;;;1.98;;
6406;SDS011;3236;51.022;6.818;2023-07-29T07:05:20;2.42;;;1.90;;
6406;SDS011;3236;51.022;6.818;2023-07-29T07:07:48;5.15;;;2.40;;
6406;SDS011;3236;51.022;6.818;2023-07-29T07:10:16;2.80;;;1.80;;
6406;SDS011;3236;51.022;6.818;2023-07-29T07:12:43;5.43;;;2.00;;
6406;SDS011;3236;51.022;6.818;2023-07-29T07:15:10;3.72;;;2.03;;
6406;SDS011;3236;51.022;6.818;2023-07-29T07:17:37;3.78;;;1.80;;
6406;SDS011;3236;51.022;6.818;2023-07-29T07:20:05;3.78;;;1.90;;
6406;SDS011;3236;51.022;6.818;2023-07-29T07:22:33;7.22;;;2.00;;
6406;SDS011;3236;51.022;6.818;2023-07-29T07:25:02;6.88;;;2.30;;
6406;SDS011;3236;51.022;6.818;2023-07-29T07:27:29;4.07;;;2.38;;
6406;SDS011;3236;51.022;6.818;2023-07-29T07:29:56;5.05;;;1.80;;
6406;SDS011;3236;51.022;6.818;2023-07-29T07:32:24;3.22;;;2.38;;
6406;SDS011;3236;51.022;6.818;2023-07-29T07:34:51;4.22;;;1.95;;
6406;SDS011;3236;51.022;6.818;2023-07-29T07:37:18;3.72;;;1.63;;
6406;SDS011;3236;51.022;6.818;2023-07-29T07:39:45;5.30;;;1.60;;
6406;SDS011;3236;51.022;6.818;2023-07-29T07:42:13;2.92;;;1.20;;
6406;SDS011;3236;51.022;6.818;2023-07-29T07:44:40;1.90;;;1.58;;
6406;SDS011;3236;51.022;6.818;2023-07-29T07:47:07;2.13;;;1.20;;
6406;SDS011;3236;51.022;6.818;2023-07-29T07:49:34;3.03;;;1.52;;
6406;SDS011;3236;51.022;6.818;2023-07-29T07:52:02;1.75;;;1.33;;
6406;SDS011;3236;51.022;6.818;2023-07-29T07:54:29;3.97;;;1.52;;
6406;SDS011;3236;51.022;6.818;2023-07-29T07:56:56;3.33;;;1.55;;
6406;SDS011;3236;51.022;6.818;2023-07-29T07:59:24;2.20;;;1.35;;
6406;SDS011;3236;51.022;6.818;2023-07-29T08:01:51;3.03;;;1.45;;
6406;SDS011;3236;51.022;6.818;2023-07-29T08:04:18;1.60;;;1.27;;
6406;SDS011;3236;51.022;6.818;2023-07-29T08:06:48;2.80;;;1.50;;
6406;SDS011;3236;51.022;6.818;2023-07-29T08:09:15;3.03;;;1.40;;
6406;SDS011;3236;51.022;6.818;2023-07-29T08:11:42;5.20;;;1.58;;
6406;SDS011;3236;51.022;6.818;2023-07-29T08:14:09;2.75;;;1.38;;
6406;SDS011;3236;51.022;6.818;2023-07-29T08:16:37;3.10;;;1.20;;
6406;SDS011;3236;51.022;6.818;2023-07-29T08:19:06;2.78;;;1.23;;
6406;SDS011;3236;51.022;6.818;2023-07-29T08:21:34;1.15;;;1.05;;
6406;SDS011;3236;51.022;6.818;2023-07-29T08:24:02;1.77;;;1.38;;
6406;SDS011;3236;51.022;6.818;2023-07-29T08:26:29;1.70;;;1.20;;
6406;SDS011;3236;51.022;6.818;2023-07-29T08:28:56;2.20;;;1.10;;
6406;SDS011;3236;51.022;6.818;2023-07-29T08:31:24;3.58;;;1.23;;
6406;SDS011;3236;51.022;6.818;2023-07-29T08:33:52;1.48;;;0.80;;
6406;SDS011;3236;51.022;6.818;2023-07-29T08:36:19;1.45;;;1.05;;
6406;SDS011;3236;51.022;6.818;2023-07-29T08:38:46;0.85;;;0.82;;
6406;SDS011;3236;51.022;6.818;2023-07-29T08:41:25;2.55;;;1.10;;
6406;SDS011;3236;51.022;6.818;2023-07-29T08:44:01;2.40;;;1.17;;
6406;SDS011;3236;51.022;6.818;2023-07-29T08:46:36;4.55;;;1.38;;
6406;SDS011;3236;51.022;6.818;2023-07-29T08:49:06;4.25;;;1.48;;
6406;SDS011;3236;51.022;6.818;2023-07-29T08:51:33;4.30;;;1.25;;
6406;SDS011;3236;51.022;6.818;2023-07-29T08:54:05;5.90;;;1.75;;
6406;SDS011;3236;51.022;6.818;2023-07-29T08:56:32;5.50;;;1.88;;
6406;SDS011;3236;51.022;6.818;2023-07-29T08:59:00;3.28;;;1.88;;
6406;SDS011;3236;51.022;6.818;2023-07-29T09:01:32;4.45;;;1.70;;
6406;SDS011;3236;51.022;6.818;2023-07-29T09:03:59;2.03;;;1.48;;
6406;SDS011;3236;51.022;6.818;2023-07-29T09:06:28;3.13;;;1.52;;
6406;SDS011;3236;51.022;6.818;2023-07-29T09:08:55;5.35;;;1.48;;
6406;SDS011;3236;51.022;6.818;2023-07-29T09:11:22;2.72;;;1.40;;
6406;SDS011;3236;51.022;6.818;2023-07-29T09:13:50;4.28;;;1.63;;
6406;SDS011;3236;51.022;6.818;2023-07-29T09:16:18;1.35;;;1.25;;
6406;SDS011;3236;51.022;6.818;2023-07-29T09:18:47;2.72;;;1.30;;
6406;SDS011;3236;51.022;6.818;2023-07-29T09:21:15;1.80;;;1.00;;
6406;SDS011;3236;51.022;6.818;2023-07-29T09:23:45;1.10;;;1.00;;
6406;SDS011;3236;51.022;6.818;2023-07-29T09:26:12;2.30;;;1.10;;
6406;SDS011;3236;51.022;6.818;2023-07-29T09:28:40;1.13;;;1.00;;
6406;SDS011;3236;51.022;6.818;2023-07-29T09:31:07;3.67;;;1.58;;
6406;SDS011;3236;51.022;6.818;2023-07-29T09:33:45;2.38;;;1.10;;
6406;SDS011;3236;51.022;6.818;2023-07-29T09:36:13;1.20;;;0.95;;
6406;SDS011;3236;51.022;6.818;2023-07-29T09:38:40;3.53;;;1.23;;
6406;SDS011;3236;51.022;6.818;2023-07-29T09:41:09;2.97;;;1.25;;
6406;SDS011;3236;51.022;6.818;2023-07-29T09:43:39;2.45;;;1.00;;
6406;SDS011;3236;51.022;6.818;2023-07-29T09:46:09;2.47;;;1.10;;
6406;SDS011;3236;51.022;6.818;2023-07-29T09:48:36;2.20;;;1.13;;
6406;SDS011;3236;51.022;6.818;2023-07-29T09:51:12;2.28;;;1.25;;
6406;SDS011;3236;51.022;6.818;2023-07-29T09:53:40;1.30;;;1.20;;
6406;SDS011;3236;51.022;6.818;2023-07-29T09:56:10;1.48;;;1.15;;
6406;SDS011;3236;51.022;6.818;2023-07-29T09:58:38;2.90;;;1.20;;
6406;SDS011;3236;51.022;6.818;2023-07-29T10:01:05;1.10;;;1.00;;
6406;SDS011;3236;51.022;6.818;2023-07-29T10:03:33;3.00;;;1.30;;
6406;SDS011;3236;51.022;6.818;2023-07-29T10:06:02;3.53;;;1.15;;
6406;SDS011;3236;51.022;6.818;2023-07-29T10:08:31;1.73;;;1.13;;
6406;SDS011;3236;51.022;6.818;2023-07-29T10:11:00;1.58;;;0.90;;
6406;SDS011;3236;51.022;6.818;2023-07-29T10:13:29;1.10;;;1.00;;
6406;SDS011;3236;51.022;6.818;2023-07-29T10:15:57;1.13;;;1.00;;
6406;SDS011;3236;51.022;6.818;2023-07-29T10:18:24;1.35;;;1.17;;
6406;SDS011;3236;51.022;6.818;2023-07-29T10:20:52;2.92;;;1.10;;
6406;SDS011;3236;51.022;6.818;2023-07-29T10:23:20;2.45;;;1.30;;
6406;SDS011;3236;51.022;6.818;2023-07-29T10:25:49;3.45;;;1.50;;
6406;SDS011;3236;51.022;6.818;2023-07-29T10:28:17;1.65;;;1.15;;
6406;SDS011;3236;51.022;6.818;2023-07-29T10:30:48;2.42;;;1.27;;
6406;SDS011;3236;51.022;6.818;2023-07-29T10:33:16;1.15;;;1.00;;
6406;SDS011;3236;51.022;6.818;2023-07-29T10:35:43;2.00;;;1.10;;
6406;SDS011;3236;51.022;6.818;2023-07-29T10:38:10;2.25;;;1.40;;
6406;SDS011;3236;51.022;6.818;2023-07-29T10:40:48;3.60;;;1.30;;
6406;SDS011;3236;51.022;6.818;2023-07-29T10:43:26;3.25;;;1.33;;
6406;SDS011;3236;51.022;6.818;2023-07-29T10:46:14;1.85;;;1.17;;
6406;SDS011;3236;51.022;6.818;2023-07-29T10:48:42;1.58;;;1.42;;
6406;SDS011;3236;51.022;6.818;2023-07-29T10:51:26;1.65;;;1.35;;
6406;SDS011;3236;51.022;6.818;2023-07-29T10:53:59;2.03;;;1.40;;
6406;SDS011;3236;51.022;6.818;2023-07-29T10:56:28;2.67;;;1.40;;
6406;SDS011;3236;51.022;6.818;2023-07-29T10:58:57;1.77;;;1.10;;
6406;SDS011;3236;51.022;6.818;2023-07-29T11:01:31;1.73;;;1.33;;
6406;SDS011;3236;51.022;6.818;2023-07-29T11:09:51;3.10;;;1.20;;
6406;SDS011;3236;51.022;6.818;2023-07-29T11:12:34;2.80;;;1.40;;
6406;SDS011;3236;51.022;6.818;2023-07-29T11:15:12;2.53;;;1.35;;
6406;SDS011;3236;51.022;6.818;2023-07-29T11:17:52;1.73;;;1.23;;
6406;SDS011;3236;51.022;6.818;2023-07-29T11:20:20;1.95;;;1.02;;
6406;SDS011;3236;51.022;6.818;2023-07-29T11:22:48;2.70;;;1.33;;
6406;SDS011;3236;51.022;6.818;2023-07-29T11:25:16;2.13;;;1.52;;
6406;SDS011;3236;51.022;6.818;2023-07-29T11:27:44;1.67;;;1.30;;
6406;SDS011;3236;51.022;6.818;2023-07-29T11:30:13;1.60;;;1.50;;
6406;SDS011;3236;51.022;6.818;2023-07-29T11:32:42;3.72;;;1.70;;
6406;SDS011;3236;51.022;6.818;2023-07-29T11:35:12;2.05;;;1.40;;
6406;SDS011;3236;51.022;6.818;2023-07-29T11:37:44;1.75;;;1.10;;
6406;SDS011;3236;51.022;6.818;2023-07-29T11:40:13;2.83;;;1.20;;
6406;SDS011;3236;51.022;6.818;2023-07-29T11:42:41;3.22;;;1.60;;
6406;SDS011;3236;51.022;6.818;2023-07-29T11:45:09;1.70;;;1.55;;
6406;SDS011;3236;51.022;6.818;2023-07-29T11:47:36;3.28;;;2.97;;
6406;SDS011;3236;51.022;6.818;2023-07-29T11:50:04;5.07;;;2.80;;
6406;SDS011;3236;51.022;6.818;2023-07-29T11:52:33;2.63;;;1.77;;
6406;SDS011;3236;51.022;6.818;2023-07-29T11:55:02;2.28;;;1.80;;
6406;SDS011;3236;51.022;6.818;2023-07-29T11:57:30;2.40;;;1.40;;
6406;SDS011;3236;51.022;6.818;2023-07-29T11:59:59;1.45;;;1.20;;
6406;SDS011;3236;51.022;6.818;2023-07-29T12:02:29;1.65;;;1.05;;
6406;SDS011;3236;51.022;6.818;2023-07-29T12:04:57;1.17;;;1.08;;
6406;SDS011;3236;51.022;6.818;2023-07-29T12:07:24;2.60;;;1.33;;
6406;SDS011;3236;51.022;6.818;2023-07-29T12:09:53;3.60;;;1.02;;
6406;SDS011;3236;51.022;6.818;2023-07-29T12:12:22;1.65;;;1.55;;
6406;SDS011;3236;51.022;6.818;2023-07-29T12:14:49;1.85;;;1.33;;
6406;SDS011;3236;51.022;6.818;2023-07-29T12:17:16;2.45;;;1.80;;
6406;SDS011;3236;51.022;6.818;2023-07-29T12:19:44;2.42;;;1.27;;
6406;SDS011;3236;51.022;6.818;2023-07-29T12:22:11;1.10;;;1.00;;
6406;SDS011;3236;51.022;6.818;2023-07-29T12:24:39;1.17;;;1.08;;
6406;SDS011;3236;51.022;6.818;2023-07-29T12:27:11;2.17;;;1.30;;
6406;SDS011;3236;51.022;6.818;2023-07-29T12:29:42;1.67;;;1.40;;
6406;SDS011;3236;51.022;6.818;2023-07-29T12:32:11;3.47;;;1.40;;
6406;SDS011;3236;51.022;6.818;2023-07-29T12:34:39;2.33;;;1.25;;
6406;SDS011;3236;51.022;6.818;2023-07-29T12:37:06;1.83;;;1.60;;
6406;SDS011;3236;51.022;6.818;2023-07-29T12:39:34;2.35;;;1.60;;
6406;SDS011;3236;51.022;6.818;2023-07-29T12:42:02;1.52;;;1.25;;
6406;SDS011;3236;51.022;6.818;2023-07-29T12:44:31;1.75;;;1.27;;
6406;SDS011;3236;51.022;6.818;2023-07-29T12:47:00;1.52;;;1.42;;
6406;SDS011;3236;51.022;6.818;2023-07-29T12:49:29;2.95;;;1.30;;
6406;SDS011;3236;51.022;6.818;2023-07-29T12:51:56;1.30;;;1.20;;
6406;SDS011;3236;51.022;6.818;2023-07-29T12:54:23;1.65;;;1.23;;
6406;SDS011;3236;51.022;6.818;2023-07-29T12:56:51;1.63;;;1.50;;
6406;SDS011;3236;51.022;6.818;2023-07-29T12:59:18;4.28;;;1.63;;
6406;SDS011;3236;51.022;6.818;2023-07-29T13:01:46;1.52;;;1.20;;
6406;SDS011;3236;51.022;6.818;2023-07-29T13:04:13;1.95;;;1.42;;
6406;SDS011;3236;51.022;6.818;2023-07-29T13:06:41;1.75;;;1.58;;
6406;SDS011;3236;51.022;6.818;2023-07-29T13:09:07;2.08;;;1.35;;
6406;SDS011;3236;51.022;6.818;2023-07-29T13:11:35;1.30;;;1.20;;
6406;SDS011;3236;51.022;6.818;2023-07-29T13:14:02;1.90;;;1.45;;
6406;SDS011;3236;51.022;6.818;2023-07-29T13:16:29;1.38;;;1.25;;
6406;SDS011;3236;51.022;6.818;2023-07-29T13:18:57;1.40;;;1.20;;
6406;SDS011;3236;51.022;6.818;2023-07-29T13:21:24;1.67;;;1.42;;
6406;SDS011;3236;51.022;6.818;2023-07-29T13:23:51;1.65;;;1.30;;
6406;SDS011;3236;51.022;6.818;2023-07-29T13:26:19;2.17;;;1.55;;
6406;SDS011;3236;51.022;6.818;2023-07-29T13:28:51;2.88;;;1.50;;
6406;SDS011;3236;51.022;6.818;2023-07-29T13:31:21;2.17;;;1.65;;
6406;SDS011;3236;51.022;6.818;2023-07-29T13:33:48;2.15;;;1.52;;
6406;SDS011;3236;51.022;6.818;2023-07-29T13:36:17;1.63;;;1.25;;
6406;SDS011;3236;51.022;6.818;2023-07-29T13:38:44;1.77;;;1.40;;
6406;SDS011;3236;51.022;6.818;2023-07-29T13:41:11;3.50;;;1.67;;
6406;SDS011;3236;51.022;6.818;2023-07-29T13:43:39;1.52;;;1.40;;
6406;SDS011;3236;51.022;6.818;2023-07-29T13:46:06;2.20;;;1.40;;
6406;SDS011;3236;51.022;6.818;2023-07-29T13:48:33;2.00;;;1.80;;
6406;SDS011;3236;51.022;6.818;2023-07-29T13:51:00;3.92;;;1.50;;
6406;SDS011;3236;51.022;6.818;2023-07-29T13:53:29;2.47;;;1.80;;
6406;SDS011;3236;51.022;6.818;2023-07-29T13:55:56;2.00;;;1.63;;
6406;SDS011;3236;51.022;6.818;2023-07-29T13:58:23;2.15;;;1.80;;
6406;SDS011;3236;51.022;6.818;2023-07-29T14:00:51;3.45;;;1.80;;
6406;SDS011;3236;51.022;6.818;2023-07-29T14:03:18;2.83;;;1.70;;
6406;SDS011;3236;51.022;6.818;2023-07-29T14:05:45;2.20;;;2.00;;
6406;SDS011;3236;51.022;6.818;2023-07-29T14:08:13;2.30;;;1.90;;
6406;SDS011;3236;51.022;6.818;2023-07-29T14:10:44;5.97;;;1.83;;
6406;SDS011;3236;51.022;6.818;2023-07-29T14:13:11;2.22;;;1.70;;
6406;SDS011;3236;51.022;6.818;2023-07-29T14:15:38;2.83;;;1.70;;
6406;SDS011;3236;51.022;6.818;2023-07-29T14:18:05;3.40;;;1.95;;
6406;SDS011;3236;51.022;6.818;2023-07-29T14:20:33;2.60;;;1.60;;
6406;SDS011;3236;51.022;6.818;2023-07-29T14:23:00;3.05;;;1.70;;
6406;SDS011;3236;51.022;6.818;2023-07-29T14:25:27;2.28;;;1.88;;
6406;SDS011;3236;51.022;6.818;2023-07-29T14:27:59;3.47;;;1.73;;
6406;SDS011;3236;51.022;6.818;2023-07-29T14:32:53;2.70;;;1.38;;
6406;SDS011;3236;51.022;6.818;2023-07-29T14:35:20;2.50;;;2.10;;
6406;SDS011;3236;51.022;6.818;2023-07-29T14:37:47;6.55;;;1.77;;
6406;SDS011;3236;51.022;6.818;2023-07-29T14:40:15;4.13;;;1.80;;
6406;SDS011;3236;51.022;6.818;2023-07-29T14:42:42;1.80;;;1.40;;
6406;SDS011;3236;51.022;6.818;2023-07-29T14:45:10;6.50;;;1.90;;
6406;SDS011;3236;51.022;6.818;2023-07-29T14:47:37;2.88;;;1.90;;
6406;SDS011;3236;51.022;6.818;2023-07-29T14:50:06;5.35;;;2.00;;
6406;SDS011;3236;51.022;6.818;2023-07-29T14:52:33;2.13;;;1.92;;
6406;SDS011;3236;51.022;6.818;2023-07-29T14:55:00;2.40;;;1.90;;
6406;SDS011;3236;51.022;6.818;2023-07-29T14:57:27;3.30;;;2.08;;
6406;SDS011;3236;51.022;6.818;2023-07-29T14:59:54;3.35;;;2.00;;
6406;SDS011;3236;51.022;6.818;2023-07-29T15:02:23;3.85;;;1.70;;
6406;SDS011;3236;51.022;6.818;2023-07-29T15:04:50;3.35;;;1.60;;
6406;SDS011;3236;51.022;6.818;2023-07-29T15:07:17;2.63;;;1.80;;
6406;SDS011;3236;51.022;6.818;2023-07-29T15:09:45;2.10;;;1.70;;
6406;SDS011;3236;51.022;6.818;2023-07-29T15:12:12;2.88;;;1.85;;
6406;SDS011;3236;51.022;6.818;2023-07-29T15:14:39;1.65;;;1.52;;
6406;SDS011;3236;51.022;6.818;2023-07-29T15:17:06;1.98;;;1.75;;
6406;SDS011;3236;51.022;6.818;2023-07-29T15:19:36;2.75;;;1.80;;
6406;SDS011;3236;51.022;6.818;2023-07-29T15:22:03;2.67;;;1.52;;
6406;SDS011;3236;51.022;6.818;2023-07-29T15:24:31;3.70;;;1.63;;
6406;SDS011;3236;51.022;6.818;2023-07-29T15:26:58;2.30;;;1.77;;
6406;SDS011;3236;51.022;6.818;2023-07-29T15:29:38;2.30;;;2.00;;
6406;SDS011;3236;51.022;6.818;2023-07-29T15:32:05;1.80;;;1.60;;